UAE40J OMDB-HAAB
Flight info
| Callsign | UAE40J |
|---|---|
| Flight time | N/A |
| Altitude | 34000 |
| Route | ANVIX R401 GIDIS G783 UKRAG L710 KUKDI B400 NODMA L702 ULALI T701 TORBA UB535 LAKBE LAKBE1B |
| Aircraft | B77W/H-SDE1E2E3FGHIJ2J3J4J5M1RWXY/LB1D1 |
Departure
| Time | 2026-05-05 05:36 |
|---|---|
| Airport | Dubai International Airport (OMDB) |
Arrival
| Time | N/A |
|---|---|
| Airport | Addis Ababa Bole International Airport (HAAB) |
| Time | Latitude | Longitude | Altitude | Speed | Heading |
|---|---|---|---|---|---|
| 2026-05-05 04:49 | 25.24193 | 55.37250 | 27 ft | 0 kts | 32° |
| 2026-05-05 05:29 | 25.24181 | 55.37242 | 26 ft | 4 kts | 35° |
| 2026-05-05 05:29 | 25.24160 | 55.37224 | 25 ft | 3 kts | 33° |
| 2026-05-05 05:29 | 25.24142 | 55.37212 | 24 ft | 4 kts | 30° |
| 2026-05-05 05:30 | 25.24120 | 55.37198 | 26 ft | 4 kts | 31° |
| 2026-05-05 05:30 | 25.24105 | 55.37184 | 25 ft | 4 kts | 103° |
| 2026-05-05 05:30 | 25.24119 | 55.37169 | 23 ft | 4 kts | 148° |
| 2026-05-05 05:30 | 25.24138 | 55.37152 | 24 ft | 2 kts | 121° |
| 2026-05-05 05:31 | 25.24139 | 55.37151 | 24 ft | 0 kts | 120° |
| 2026-05-05 05:32 | 25.24130 | 55.37169 | 26 ft | 9 kts | 120° |
| 2026-05-05 05:33 | 25.24071 | 55.37279 | 27 ft | 21 kts | 120° |
| 2026-05-05 05:33 | 25.23997 | 55.37417 | 27 ft | 21 kts | 118° |
| 2026-05-05 05:33 | 25.23997 | 55.37568 | 27 ft | 21 kts | 57° |
| 2026-05-05 05:33 | 25.24109 | 55.37665 | 27 ft | 21 kts | 32° |
| 2026-05-05 05:34 | 25.24232 | 55.37749 | 27 ft | 21 kts | 31° |
| 2026-05-05 05:34 | 25.24355 | 55.37834 | 27 ft | 21 kts | 34° |
| 2026-05-05 05:34 | 25.24474 | 55.37924 | 27 ft | 21 kts | 34° |
| 2026-05-05 05:34 | 25.24594 | 55.38014 | 27 ft | 21 kts | 34° |
| 2026-05-05 05:35 | 25.24718 | 55.38095 | 27 ft | 21 kts | 14° |
| 2026-05-05 05:35 | 25.24822 | 55.37998 | 27 ft | 23 kts | 301° |
| 2026-05-05 05:35 | 25.24990 | 55.37690 | 27 ft | 82 kts | 301° |
| 2026-05-05 05:35 | 25.25415 | 55.36919 | 27 ft | 151 kts | 300° |
| 2026-05-05 05:36 | 25.26053 | 55.35790 | 241 ft | 182 kts | 301° |
| 2026-05-05 05:36 | 25.26735 | 55.34569 | 802 ft | 189 kts | 300° |
| 2026-05-05 05:36 | 25.27421 | 55.33301 | 1378 ft | 197 kts | 301° |
| 2026-05-05 05:36 | 25.28152 | 55.31985 | 1881 ft | 207 kts | 302° |
| 2026-05-05 05:37 | 25.28913 | 55.30619 | 2434 ft | 209 kts | 301° |
| 2026-05-05 05:37 | 25.29281 | 55.29063 | 2895 ft | 215 kts | 261° |
| 2026-05-05 05:37 | 25.28755 | 55.27516 | 3332 ft | 217 kts | 243° |
| 2026-05-05 05:37 | 25.28084 | 55.25994 | 3844 ft | 222 kts | 245° |
| 2026-05-05 05:38 | 25.27436 | 55.24469 | 4523 ft | 219 kts | 246° |
| 2026-05-05 05:38 | 25.26790 | 55.22948 | 5097 ft | 219 kts | 245° |
| 2026-05-05 05:38 | 25.26140 | 55.21420 | 5671 ft | 222 kts | 245° |
| 2026-05-05 05:38 | 25.25453 | 55.19807 | 5911 ft | 245 kts | 245° |
| 2026-05-05 05:39 | 25.24675 | 55.18116 | 6310 ft | 254 kts | 234° |
| 2026-05-05 05:39 | 25.23295 | 55.16899 | 6744 ft | 261 kts | 198° |
| 2026-05-05 05:39 | 25.21489 | 55.16687 | 7219 ft | 265 kts | 174° |
| 2026-05-05 05:39 | 25.19648 | 55.16958 | 7696 ft | 270 kts | 160° |
| 2026-05-05 05:40 | 25.18081 | 55.18084 | 8126 ft | 278 kts | 128° |
| 2026-05-05 05:40 | 25.17085 | 55.19942 | 8484 ft | 286 kts | 115° |
| 2026-05-05 05:40 | 25.16164 | 55.21925 | 9083 ft | 293 kts | 116° |
| 2026-05-05 05:40 | 25.15211 | 55.23930 | 9820 ft | 296 kts | 116° |
| 2026-05-05 05:41 | 25.14242 | 55.25954 | 10488 ft | 301 kts | 116° |
| 2026-05-05 05:41 | 25.13260 | 55.28006 | 11224 ft | 303 kts | 117° |
| 2026-05-05 05:41 | 25.12264 | 55.30081 | 11977 ft | 309 kts | 117° |
| 2026-05-05 05:41 | 25.11237 | 55.32216 | 12503 ft | 326 kts | 117° |
| 2026-05-05 05:42 | 25.10163 | 55.34537 | 12693 ft | 353 kts | 115° |
| 2026-05-05 05:42 | 25.09115 | 55.37093 | 12888 ft | 378 kts | 114° |
| 2026-05-05 05:42 | 25.08019 | 55.39818 | 13269 ft | 396 kts | 114° |
| 2026-05-05 05:42 | 25.06883 | 55.42633 | 13830 ft | 407 kts | 114° |
| 2026-05-05 05:43 | 25.05768 | 55.45519 | 14500 ft | 412 kts | 113° |
| 2026-05-05 05:43 | 25.04672 | 55.48405 | 15277 ft | 415 kts | 113° |
| 2026-05-05 05:43 | 25.03546 | 55.51352 | 16028 ft | 419 kts | 113° |
| 2026-05-05 05:43 | 25.02399 | 55.54331 | 16739 ft | 424 kts | 114° |
| 2026-05-05 05:44 | 25.01142 | 55.57294 | 17430 ft | 429 kts | 119° |
| 2026-05-05 05:44 | 24.99611 | 55.60136 | 18147 ft | 434 kts | 123° |
| 2026-05-05 05:44 | 24.97978 | 55.62949 | 18790 ft | 438 kts | 123° |
| 2026-05-05 05:44 | 24.96359 | 55.65812 | 19467 ft | 442 kts | 122° |
| 2026-05-05 05:45 | 24.94766 | 55.68726 | 20129 ft | 446 kts | 122° |
| 2026-05-05 05:45 | 24.93701 | 55.70661 | 20569 ft | 448 kts | 123° |
| 2026-05-05 05:45 | 24.91923 | 55.73501 | 21196 ft | 452 kts | 127° |
| 2026-05-05 05:45 | 24.89369 | 55.77223 | 22030 ft | 457 kts | 129° |
| 2026-05-05 05:46 | 24.88091 | 55.79077 | 22426 ft | 460 kts | 128° |
| 2026-05-05 05:46 | 24.86170 | 55.81919 | 22993 ft | 466 kts | 128° |
| 2026-05-05 05:46 | 24.84249 | 55.84810 | 23566 ft | 469 kts | 127° |
| 2026-05-05 05:46 | 24.82311 | 55.87713 | 24067 ft | 472 kts | 128° |
| 2026-05-05 05:47 | 24.80222 | 55.90492 | 24392 ft | 472 kts | 139° |
| 2026-05-05 05:47 | 24.76500 | 55.92934 | 24856 ft | 473 kts | 162° |
| 2026-05-05 05:47 | 24.74404 | 55.93591 | 25144 ft | 472 kts | 172° |
| 2026-05-05 05:47 | 24.71150 | 55.93817 | 25672 ft | 468 kts | 185° |
| 2026-05-05 05:48 | 24.67887 | 55.93599 | 26166 ft | 470 kts | 186° |
| 2026-05-05 05:48 | 24.64607 | 55.93417 | 26589 ft | 472 kts | 187° |
| 2026-05-05 05:48 | 24.61373 | 55.92783 | 26877 ft | 473 kts | 200° |
| 2026-05-05 05:48 | 24.58342 | 55.91390 | 27275 ft | 473 kts | 211° |
| 2026-05-05 05:49 | 24.55637 | 55.89379 | 27746 ft | 468 kts | 223° |
| 2026-05-05 05:49 | 24.53211 | 55.86980 | 28165 ft | 470 kts | 225° |
| 2026-05-05 05:49 | 24.50783 | 55.84548 | 28576 ft | 473 kts | 225° |
| 2026-05-05 05:49 | 24.48332 | 55.82123 | 28967 ft | 476 kts | 224° |
| 2026-05-05 05:50 | 24.45877 | 55.79733 | 29352 ft | 478 kts | 224° |
| 2026-05-05 05:50 | 24.43373 | 55.77320 | 29720 ft | 480 kts | 224° |
| 2026-05-05 05:50 | 24.40865 | 55.74915 | 30224 ft | 477 kts | 224° |
| 2026-05-05 05:50 | 24.38377 | 55.72530 | 30787 ft | 473 kts | 224° |
| 2026-05-05 05:51 | 24.35908 | 55.70163 | 31303 ft | 470 kts | 224° |
| 2026-05-05 05:51 | 24.33452 | 55.67806 | 31799 ft | 468 kts | 224° |
| 2026-05-05 05:51 | 24.31002 | 55.65456 | 32259 ft | 467 kts | 224° |
| 2026-05-05 05:51 | 24.28479 | 55.63203 | 32686 ft | 469 kts | 218° |
| 2026-05-05 05:52 | 24.25681 | 55.61327 | 33131 ft | 472 kts | 212° |
| 2026-05-05 05:52 | 24.22751 | 55.59798 | 33572 ft | 474 kts | 207° |
| 2026-05-05 05:52 | 24.19588 | 55.58586 | 33878 ft | 480 kts | 200° |
| 2026-05-05 05:52 | 24.16380 | 55.57637 | 33853 ft | 484 kts | 199° |
| 2026-05-05 05:53 | 24.09891 | 55.55809 | 33846 ft | 478 kts | 199° |
| 2026-05-05 05:53 | 24.03486 | 55.53918 | 33845 ft | 476 kts | 200° |
| 2026-05-05 05:54 | 23.97100 | 55.52006 | 33839 ft | 476 kts | 199° |
| 2026-05-05 05:54 | 23.90712 | 55.50110 | 33837 ft | 476 kts | 199° |
| 2026-05-05 05:55 | 23.84318 | 55.48213 | 33838 ft | 476 kts | 199° |
| 2026-05-05 05:55 | 23.77918 | 55.46313 | 33837 ft | 477 kts | 199° |
| 2026-05-05 05:56 | 23.71506 | 55.44410 | 33832 ft | 477 kts | 199° |
| 2026-05-05 05:56 | 23.65124 | 55.42517 | 33831 ft | 478 kts | 199° |
| 2026-05-05 05:57 | 23.58694 | 55.40612 | 33837 ft | 478 kts | 199° |
| 2026-05-05 05:57 | 23.52116 | 55.39326 | 33831 ft | 487 kts | 185° |
| 2026-05-05 05:58 | 23.45333 | 55.40103 | 33834 ft | 497 kts | 169° |
| 2026-05-05 05:58 | 23.38677 | 55.42206 | 33837 ft | 498 kts | 167° |
| 2026-05-05 05:59 | 23.32032 | 55.44369 | 33832 ft | 498 kts | 167° |
| 2026-05-05 05:59 | 23.25407 | 55.46484 | 33833 ft | 498 kts | 167° |
| 2026-05-05 06:00 | 23.18753 | 55.48582 | 33827 ft | 498 kts | 167° |
| 2026-05-05 06:00 | 23.12106 | 55.50674 | 33834 ft | 498 kts | 167° |
| 2026-05-05 06:01 | 23.05453 | 55.52769 | 33838 ft | 498 kts | 168° |
| 2026-05-05 06:01 | 22.98793 | 55.54842 | 33831 ft | 498 kts | 168° |
| 2026-05-05 06:02 | 22.92119 | 55.56883 | 33822 ft | 498 kts | 168° |
| 2026-05-05 06:02 | 22.85453 | 55.58923 | 33831 ft | 498 kts | 168° |
| 2026-05-05 06:03 | 22.78830 | 55.60952 | 33831 ft | 498 kts | 168° |
| 2026-05-05 06:03 | 22.72162 | 55.62996 | 33829 ft | 498 kts | 168° |
| 2026-05-05 06:04 | 22.65483 | 55.65040 | 33821 ft | 498 kts | 168° |
| 2026-05-05 06:04 | 22.58812 | 55.67080 | 33827 ft | 498 kts | 168° |
| 2026-05-05 06:05 | 22.52139 | 55.69122 | 33830 ft | 498 kts | 168° |
| 2026-05-05 06:05 | 22.45500 | 55.71152 | 33829 ft | 499 kts | 168° |
| 2026-05-05 06:06 | 22.38805 | 55.73198 | 33828 ft | 499 kts | 168° |
| 2026-05-05 06:06 | 22.32127 | 55.75236 | 33829 ft | 499 kts | 168° |
| 2026-05-05 06:07 | 22.25423 | 55.77129 | 33822 ft | 496 kts | 173° |
| 2026-05-05 06:07 | 22.18641 | 55.77953 | 33831 ft | 492 kts | 179° |
| 2026-05-05 06:08 | 22.11806 | 55.78563 | 33821 ft | 493 kts | 179° |
| 2026-05-05 06:08 | 22.04954 | 55.79217 | 33818 ft | 493 kts | 178° |
| 2026-05-05 06:09 | 21.98151 | 55.79893 | 33822 ft | 494 kts | 178° |
| 2026-05-05 06:09 | 21.91305 | 55.80576 | 33812 ft | 494 kts | 178° |
| 2026-05-05 06:10 | 21.84450 | 55.81257 | 33832 ft | 494 kts | 178° |
| 2026-05-05 06:10 | 21.77591 | 55.81937 | 33826 ft | 494 kts | 178° |
| 2026-05-05 06:11 | 21.70740 | 55.82615 | 33818 ft | 494 kts | 178° |
| 2026-05-05 06:11 | 21.63888 | 55.83289 | 33823 ft | 494 kts | 178° |
| 2026-05-05 06:12 | 21.57036 | 55.83962 | 33830 ft | 494 kts | 178° |
| 2026-05-05 06:12 | 21.50228 | 55.84630 | 33827 ft | 495 kts | 178° |
| 2026-05-05 06:13 | 21.43372 | 55.85302 | 33831 ft | 495 kts | 178° |
| 2026-05-05 06:13 | 21.36521 | 55.85973 | 33828 ft | 495 kts | 178° |